Terminal Aerodrome Forecast
Issued by NWS Wilmington, OH

Current Version | Previous Version | Text Only | Print | Product List | Glossary Off
Versions: 1 2 3 4 5 6 7 8 9 10 11 12 13 14 15 16 17 18 19 20 21 22 23 24 25 26

000
FTUS41 KILN 282200 AAB
TAFCVG
TAF AMD
KCVG 282215Z 2822/2924 VRB03KT P6SM VCSH BKN060
     FM290100 VRB03KT P6SM SCT040
     FM291400 34006KT P6SM SCT045=

USA.gov is the U.S. government's official web portal to all federal, state and local government web resources and services.